sensor_id;sensor_type;location;lat;lon;timestamp;P1;durP1;ratioP1;P2;durP2;ratioP2
71196;SDS011;58918;51.652;4.864;2023-04-15T00:01:01;3.85;;;1.10;;
71196;SDS011;58918;51.652;4.864;2023-04-15T00:03:29;3.30;;;1.00;;
71196;SDS011;58918;51.652;4.864;2023-04-15T00:05:56;4.20;;;1.00;;
71196;SDS011;58918;51.652;4.864;2023-04-15T00:08:27;3.63;;;1.00;;
71196;SDS011;58918;51.652;4.864;2023-04-15T00:10:55;3.97;;;0.90;;
71196;SDS011;58918;51.652;4.864;2023-04-15T00:13:24;2.58;;;0.82;;
71196;SDS011;58918;51.652;4.864;2023-04-15T00:15:51;3.53;;;0.82;;
71196;SDS011;58918;51.652;4.864;2023-04-15T00:18:20;2.25;;;0.80;;
71196;SDS011;58918;51.652;4.864;2023-04-15T00:20:47;3.70;;;0.90;;
71196;SDS011;58918;51.652;4.864;2023-04-15T00:23:14;2.72;;;1.00;;
71196;SDS011;58918;51.652;4.864;2023-04-15T00:25:41;5.88;;;0.75;;
71196;SDS011;58918;51.652;4.864;2023-04-15T00:28:08;3.63;;;0.85;;
71196;SDS011;58918;51.652;4.864;2023-04-15T00:30:35;4.03;;;1.10;;
71196;SDS011;58918;51.652;4.864;2023-04-15T00:33:03;2.85;;;0.90;;
71196;SDS011;58918;51.652;4.864;2023-04-15T00:35:30;3.38;;;0.75;;
71196;SDS011;58918;51.652;4.864;2023-04-15T00:37:57;3.55;;;0.88;;
71196;SDS011;58918;51.652;4.864;2023-04-15T00:40:25;6.30;;;1.10;;
71196;SDS011;58918;51.652;4.864;2023-04-15T00:42:53;3.13;;;0.80;;
71196;SDS011;58918;51.652;4.864;2023-04-15T00:45:20;2.78;;;0.88;;
71196;SDS011;58918;51.652;4.864;2023-04-15T00:47:47;2.60;;;0.90;;
71196;SDS011;58918;51.652;4.864;2023-04-15T00:50:14;2.60;;;0.90;;
71196;SDS011;58918;51.652;4.864;2023-04-15T00:52:41;2.63;;;0.90;;
71196;SDS011;58918;51.652;4.864;2023-04-15T00:55:09;5.13;;;1.10;;
71196;SDS011;58918;51.652;4.864;2023-04-15T00:57:36;3.75;;;1.10;;
71196;SDS011;58918;51.652;4.864;2023-04-15T01:00:04;3.80;;;0.93;;
71196;SDS011;58918;51.652;4.864;2023-04-15T01:02:34;4.07;;;0.90;;
71196;SDS011;58918;51.652;4.864;2023-04-15T01:05:02;2.40;;;0.77;;
71196;SDS011;58918;51.652;4.864;2023-04-15T01:07:30;3.28;;;1.00;;
71196;SDS011;58918;51.652;4.864;2023-04-15T01:09:57;2.97;;;0.90;;
71196;SDS011;58918;51.652;4.864;2023-04-15T01:12:25;4.75;;;0.90;;
71196;SDS011;58918;51.652;4.864;2023-04-15T01:14:53;4.15;;;0.98;;
71196;SDS011;58918;51.652;4.864;2023-04-15T01:17:20;4.78;;;1.10;;
71196;SDS011;58918;51.652;4.864;2023-04-15T01:19:47;4.15;;;1.00;;
71196;SDS011;58918;51.652;4.864;2023-04-15T01:22:14;4.97;;;1.30;;
71196;SDS011;58918;51.652;4.864;2023-04-15T01:24:44;3.90;;;1.10;;
71196;SDS011;58918;51.652;4.864;2023-04-15T01:27:14;5.05;;;1.45;;
71196;SDS011;58918;51.652;4.864;2023-04-15T01:29:41;2.63;;;0.90;;
71196;SDS011;58918;51.652;4.864;2023-04-15T01:32:08;2.63;;;0.88;;
71196;SDS011;58918;51.652;4.864;2023-04-15T01:34:36;4.25;;;0.93;;
71196;SDS011;58918;51.652;4.864;2023-04-15T01:37:03;3.63;;;0.80;;
71196;SDS011;58918;51.652;4.864;2023-04-15T01:39:30;2.92;;;0.95;;
71196;SDS011;58918;51.652;4.864;2023-04-15T01:41:57;3.63;;;0.93;;
71196;SDS011;58918;51.652;4.864;2023-04-15T01:44:24;2.95;;;0.82;;
71196;SDS011;58918;51.652;4.864;2023-04-15T01:46:52;3.35;;;1.17;;
71196;SDS011;58918;51.652;4.864;2023-04-15T01:49:20;2.80;;;1.00;;
71196;SDS011;58918;51.652;4.864;2023-04-15T01:51:47;3.00;;;1.00;;
71196;SDS011;58918;51.652;4.864;2023-04-15T01:54:14;3.20;;;1.00;;
71196;SDS011;58918;51.652;4.864;2023-04-15T01:56:42;6.15;;;1.00;;
71196;SDS011;58918;51.652;4.864;2023-04-15T01:59:09;4.40;;;0.80;;
71196;SDS011;58918;51.652;4.864;2023-04-15T02:01:36;2.85;;;1.00;;
71196;SDS011;58918;51.652;4.864;2023-04-15T02:04:04;2.42;;;0.90;;
71196;SDS011;58918;51.652;4.864;2023-04-15T02:06:31;3.58;;;0.82;;
71196;SDS011;58918;51.652;4.864;2023-04-15T02:08:58;3.15;;;0.93;;
71196;SDS011;58918;51.652;4.864;2023-04-15T02:11:26;2.28;;;0.75;;
71196;SDS011;58918;51.652;4.864;2023-04-15T02:13:53;3.90;;;1.13;;
71196;SDS011;58918;51.652;4.864;2023-04-15T02:16:20;4.15;;;1.10;;
71196;SDS011;58918;51.652;4.864;2023-04-15T02:18:47;2.30;;;0.90;;
71196;SDS011;58918;51.652;4.864;2023-04-15T02:21:14;3.83;;;0.77;;
71196;SDS011;58918;51.652;4.864;2023-04-15T02:23:42;3.35;;;1.00;;
71196;SDS011;58918;51.652;4.864;2023-04-15T02:26:09;2.75;;;0.93;;
71196;SDS011;58918;51.652;4.864;2023-04-15T02:28:37;3.05;;;0.85;;
71196;SDS011;58918;51.652;4.864;2023-04-15T02:31:07;2.97;;;1.00;;
71196;SDS011;58918;51.652;4.864;2023-04-15T02:33:34;2.40;;;0.80;;
71196;SDS011;58918;51.652;4.864;2023-04-15T02:36:03;3.28;;;1.05;;
71196;SDS011;58918;51.652;4.864;2023-04-15T02:38:30;4.68;;;1.17;;
71196;SDS011;58918;51.652;4.864;2023-04-15T02:40:57;3.33;;;1.00;;
71196;SDS011;58918;51.652;4.864;2023-04-15T02:43:24;2.40;;;0.77;;
71196;SDS011;58918;51.652;4.864;2023-04-15T02:45:51;2.67;;;0.90;;
71196;SDS011;58918;51.652;4.864;2023-04-15T02:48:19;2.03;;;0.82;;
71196;SDS011;58918;51.652;4.864;2023-04-15T02:50:47;3.00;;;1.10;;
71196;SDS011;58918;51.652;4.864;2023-04-15T02:53:14;3.67;;;0.73;;
71196;SDS011;58918;51.652;4.864;2023-04-15T02:55:42;5.50;;;1.10;;
71196;SDS011;58918;51.652;4.864;2023-04-15T02:58:09;2.85;;;0.90;;
71196;SDS011;58918;51.652;4.864;2023-04-15T03:00:37;2.67;;;1.02;;
71196;SDS011;58918;51.652;4.864;2023-04-15T03:03:04;2.95;;;1.10;;
71196;SDS011;58918;51.652;4.864;2023-04-15T03:05:32;3.03;;;0.93;;
71196;SDS011;58918;51.652;4.864;2023-04-15T03:07:59;2.38;;;0.95;;
71196;SDS011;58918;51.652;4.864;2023-04-15T03:10:26;2.45;;;0.98;;
71196;SDS011;58918;51.652;4.864;2023-04-15T03:12:53;2.65;;;0.80;;
71196;SDS011;58918;51.652;4.864;2023-04-15T03:15:21;2.83;;;0.95;;
71196;SDS011;58918;51.652;4.864;2023-04-15T03:17:48;3.78;;;1.00;;
71196;SDS011;58918;51.652;4.864;2023-04-15T03:20:15;3.00;;;1.10;;
71196;SDS011;58918;51.652;4.864;2023-04-15T03:22:45;3.53;;;0.82;;
71196;SDS011;58918;51.652;4.864;2023-04-15T03:25:13;2.97;;;1.20;;
71196;SDS011;58918;51.652;4.864;2023-04-15T03:27:40;2.72;;;1.10;;
71196;SDS011;58918;51.652;4.864;2023-04-15T03:30:07;3.42;;;0.98;;
71196;SDS011;58918;51.652;4.864;2023-04-15T03:32:35;3.25;;;0.90;;
71196;SDS011;58918;51.652;4.864;2023-04-15T03:35:02;3.20;;;1.15;;
71196;SDS011;58918;51.652;4.864;2023-04-15T03:37:29;2.42;;;1.00;;
71196;SDS011;58918;51.652;4.864;2023-04-15T03:39:56;2.50;;;0.90;;
71196;SDS011;58918;51.652;4.864;2023-04-15T03:42:23;1.98;;;0.80;;
71196;SDS011;58918;51.652;4.864;2023-04-15T03:44:51;4.20;;;1.10;;
71196;SDS011;58918;51.652;4.864;2023-04-15T03:47:18;3.90;;;0.80;;
71196;SDS011;58918;51.652;4.864;2023-04-15T03:49:45;2.95;;;1.10;;
71196;SDS011;58918;51.652;4.864;2023-04-15T03:52:12;3.30;;;0.85;;
71196;SDS011;58918;51.652;4.864;2023-04-15T03:54:40;2.28;;;0.85;;
71196;SDS011;58918;51.652;4.864;2023-04-15T03:57:07;2.90;;;0.88;;
71196;SDS011;58918;51.652;4.864;2023-04-15T03:59:34;3.05;;;0.95;;
71196;SDS011;58918;51.652;4.864;2023-04-15T04:02:01;3.72;;;1.00;;
71196;SDS011;58918;51.652;4.864;2023-04-15T04:04:28;3.22;;;0.90;;
71196;SDS011;58918;51.652;4.864;2023-04-15T04:06:56;3.25;;;0.98;;
71196;SDS011;58918;51.652;4.864;2023-04-15T04:09:23;3.20;;;0.80;;
71196;SDS011;58918;51.652;4.864;2023-04-15T04:11:51;3.15;;;1.00;;
71196;SDS011;58918;51.652;4.864;2023-04-15T04:14:18;3.85;;;1.27;;
71196;SDS011;58918;51.652;4.864;2023-04-15T04:16:45;3.08;;;1.00;;
71196;SDS011;58918;51.652;4.864;2023-04-15T04:19:12;4.15;;;1.15;;
71196;SDS011;58918;51.652;4.864;2023-04-15T04:21:40;3.50;;;0.90;;
71196;SDS011;58918;51.652;4.864;2023-04-15T04:24:07;3.33;;;1.08;;
71196;SDS011;58918;51.652;4.864;2023-04-15T04:26:34;3.08;;;1.17;;
71196;SDS011;58918;51.652;4.864;2023-04-15T04:29:01;2.75;;;1.00;;
71196;SDS011;58918;51.652;4.864;2023-04-15T04:31:29;2.55;;;0.98;;
71196;SDS011;58918;51.652;4.864;2023-04-15T04:33:56;4.88;;;1.00;;
71196;SDS011;58918;51.652;4.864;2023-04-15T04:36:23;3.58;;;1.10;;
71196;SDS011;58918;51.652;4.864;2023-04-15T04:38:51;2.22;;;0.88;;
71196;SDS011;58918;51.652;4.864;2023-04-15T04:41:18;2.92;;;1.00;;
71196;SDS011;58918;51.652;4.864;2023-04-15T04:43:45;3.58;;;0.85;;
71196;SDS011;58918;51.652;4.864;2023-04-15T04:46:12;3.05;;;1.02;;
71196;SDS011;58918;51.652;4.864;2023-04-15T04:48:40;3.72;;;1.17;;
71196;SDS011;58918;51.652;4.864;2023-04-15T04:51:07;4.15;;;1.05;;
71196;SDS011;58918;51.652;4.864;2023-04-15T04:53:34;3.35;;;1.10;;
71196;SDS011;58918;51.652;4.864;2023-04-15T04:56:02;3.60;;;1.17;;
71196;SDS011;58918;51.652;4.864;2023-04-15T04:58:30;5.32;;;1.10;;
71196;SDS011;58918;51.652;4.864;2023-04-15T05:00:57;3.25;;;1.00;;
71196;SDS011;58918;51.652;4.864;2023-04-15T05:03:24;3.05;;;0.90;;
71196;SDS011;58918;51.652;4.864;2023-04-15T05:05:52;2.63;;;0.93;;
71196;SDS011;58918;51.652;4.864;2023-04-15T05:08:20;3.33;;;1.10;;
71196;SDS011;58918;51.652;4.864;2023-04-15T05:10:47;4.80;;;2.17;;
71196;SDS011;58918;51.652;4.864;2023-04-15T05:13:14;8.55;;;1.00;;
71196;SDS011;58918;51.652;4.864;2023-04-15T05:15:41;5.32;;;1.10;;
71196;SDS011;58918;51.652;4.864;2023-04-15T05:18:08;6.10;;;1.98;;
71196;SDS011;58918;51.652;4.864;2023-04-15T05:20:36;5.80;;;1.30;;
71196;SDS011;58918;51.652;4.864;2023-04-15T05:23:03;3.85;;;1.10;;
71196;SDS011;58918;51.652;4.864;2023-04-15T05:25:30;7.55;;;1.20;;
71196;SDS011;58918;51.652;4.864;2023-04-15T05:27:57;2.75;;;0.93;;
71196;SDS011;58918;51.652;4.864;2023-04-15T05:30:24;5.03;;;1.13;;
71196;SDS011;58918;51.652;4.864;2023-04-15T05:32:51;5.13;;;1.10;;
71196;SDS011;58918;51.652;4.864;2023-04-15T05:35:19;3.20;;;1.10;;
71196;SDS011;58918;51.652;4.864;2023-04-15T05:37:46;3.88;;;1.15;;
71196;SDS011;58918;51.652;4.864;2023-04-15T05:40:13;3.10;;;1.00;;
71196;SDS011;58918;51.652;4.864;2023-04-15T05:42:40;3.22;;;1.05;;
71196;SDS011;58918;51.652;4.864;2023-04-15T05:45:07;3.10;;;0.95;;
71196;SDS011;58918;51.652;4.864;2023-04-15T05:47:35;3.28;;;1.13;;
71196;SDS011;58918;51.652;4.864;2023-04-15T05:50:05;2.80;;;1.15;;
71196;SDS011;58918;51.652;4.864;2023-04-15T05:52:33;5.25;;;0.95;;
71196;SDS011;58918;51.652;4.864;2023-04-15T05:55:00;5.28;;;1.70;;
71196;SDS011;58918;51.652;4.864;2023-04-15T05:57:27;4.63;;;1.20;;
71196;SDS011;58918;51.652;4.864;2023-04-15T05:59:54;3.05;;;1.38;;
71196;SDS011;58918;51.652;4.864;2023-04-15T06:02:22;4.78;;;1.50;;
71196;SDS011;58918;51.652;4.864;2023-04-15T06:04:50;3.65;;;1.42;;
71196;SDS011;58918;51.652;4.864;2023-04-15T06:07:17;4.78;;;1.50;;
71196;SDS011;58918;51.652;4.864;2023-04-15T06:09:44;2.70;;;0.90;;
71196;SDS011;58918;51.652;4.864;2023-04-15T06:12:11;3.75;;;0.98;;
71196;SDS011;58918;51.652;4.864;2023-04-15T06:14:39;3.97;;;1.35;;
71196;SDS011;58918;51.652;4.864;2023-04-15T06:17:06;2.70;;;1.00;;
71196;SDS011;58918;51.652;4.864;2023-04-15T06:19:34;4.18;;;0.93;;
71196;SDS011;58918;51.652;4.864;2023-04-15T06:22:04;4.07;;;1.20;;
71196;SDS011;58918;51.652;4.864;2023-04-15T06:24:32;3.05;;;0.95;;
71196;SDS011;58918;51.652;4.864;2023-04-15T06:26:59;2.95;;;1.02;;
71196;SDS011;58918;51.652;4.864;2023-04-15T06:29:27;2.90;;;1.00;;
71196;SDS011;58918;51.652;4.864;2023-04-15T06:31:54;2.75;;;0.93;;
71196;SDS011;58918;51.652;4.864;2023-04-15T06:34:22;4.13;;;1.30;;
71196;SDS011;58918;51.652;4.864;2023-04-15T06:36:49;3.22;;;1.50;;
71196;SDS011;58918;51.652;4.864;2023-04-15T06:39:16;3.17;;;1.20;;
71196;SDS011;58918;51.652;4.864;2023-04-15T06:41:43;2.40;;;1.00;;
71196;SDS011;58918;51.652;4.864;2023-04-15T06:44:10;3.10;;;1.13;;
71196;SDS011;58918;51.652;4.864;2023-04-15T06:46:37;3.60;;;1.13;;
71196;SDS011;58918;51.652;4.864;2023-04-15T06:49:05;3.30;;;1.20;;
71196;SDS011;58918;51.652;4.864;2023-04-15T06:51:33;3.38;;;1.33;;
71196;SDS011;58918;51.652;4.864;2023-04-15T06:54:01;2.40;;;0.80;;
71196;SDS011;58918;51.652;4.864;2023-04-15T06:56:32;3.35;;;1.15;;
71196;SDS011;58918;51.652;4.864;2023-04-15T06:58:59;4.07;;;1.15;;
71196;SDS011;58918;51.652;4.864;2023-04-15T07:06:22;2.92;;;0.98;;
71196;SDS011;58918;51.652;4.864;2023-04-15T07:08:51;2.85;;;1.27;;
71196;SDS011;58918;51.652;4.864;2023-04-15T07:11:18;4.63;;;1.52;;
71196;SDS011;58918;51.652;4.864;2023-04-15T07:13:46;3.08;;;1.08;;
71196;SDS011;58918;51.652;4.864;2023-04-15T07:16:13;3.17;;;0.93;;
71196;SDS011;58918;51.652;4.864;2023-04-15T07:18:40;3.05;;;1.08;;
71196;SDS011;58918;51.652;4.864;2023-04-15T07:21:08;3.60;;;1.10;;
71196;SDS011;58918;51.652;4.864;2023-04-15T07:23:36;2.60;;;1.08;;
71196;SDS011;58918;51.652;4.864;2023-04-15T07:26:03;3.05;;;1.00;;
71196;SDS011;58918;51.652;4.864;2023-04-15T07:28:30;3.58;;;1.30;;
71196;SDS011;58918;51.652;4.864;2023-04-15T07:30:57;5.53;;;1.25;;
71196;SDS011;58918;51.652;4.864;2023-04-15T07:33:25;3.58;;;1.27;;
71196;SDS011;58918;51.652;4.864;2023-04-15T07:35:52;3.95;;;1.45;;
71196;SDS011;58918;51.652;4.864;2023-04-15T07:38:19;3.17;;;1.13;;
71196;SDS011;58918;51.652;4.864;2023-04-15T07:40:46;3.15;;;1.20;;
71196;SDS011;58918;51.652;4.864;2023-04-15T07:43:14;2.90;;;1.05;;
71196;SDS011;58918;51.652;4.864;2023-04-15T07:45:41;3.05;;;1.23;;
71196;SDS011;58918;51.652;4.864;2023-04-15T07:48:09;4.85;;;1.50;;
71196;SDS011;58918;51.652;4.864;2023-04-15T07:50:36;4.07;;;1.38;;
71196;SDS011;58918;51.652;4.864;2023-04-15T07:53:03;3.55;;;1.38;;
71196;SDS011;58918;51.652;4.864;2023-04-15T07:55:31;3.00;;;1.23;;
71196;SDS011;58918;51.652;4.864;2023-04-15T07:57:58;3.78;;;1.50;;
71196;SDS011;58918;51.652;4.864;2023-04-15T08:00:26;5.15;;;1.40;;
71196;SDS011;58918;51.652;4.864;2023-04-15T08:02:53;9.75;;;1.50;;
71196;SDS011;58918;51.652;4.864;2023-04-15T08:05:22;7.43;;;1.52;;
71196;SDS011;58918;51.652;4.864;2023-04-15T08:07:50;9.75;;;1.90;;
71196;SDS011;58918;51.652;4.864;2023-04-15T08:10:17;5.03;;;1.50;;
71196;SDS011;58918;51.652;4.864;2023-04-15T08:12:44;4.38;;;1.92;;
71196;SDS011;58918;51.652;4.864;2023-04-15T08:15:14;4.28;;;1.48;;
71196;SDS011;58918;51.652;4.864;2023-04-15T08:17:41;6.30;;;1.85;;
71196;SDS011;58918;51.652;4.864;2023-04-15T08:20:09;4.65;;;1.65;;
71196;SDS011;58918;51.652;4.864;2023-04-15T08:22:36;8.50;;;1.80;;
71196;SDS011;58918;51.652;4.864;2023-04-15T08:25:04;4.55;;;1.48;;
71196;SDS011;58918;51.652;4.864;2023-04-15T08:27:31;4.15;;;1.75;;
71196;SDS011;58918;51.652;4.864;2023-04-15T08:29:58;3.45;;;1.40;;
71196;SDS011;58918;51.652;4.864;2023-04-15T08:32:29;3.70;;;1.63;;
71196;SDS011;58918;51.652;4.864;2023-04-15T08:34:57;4.35;;;1.88;;
71196;SDS011;58918;51.652;4.864;2023-04-15T08:37:24;3.92;;;1.48;;
71196;SDS011;58918;51.652;4.864;2023-04-15T08:39:52;4.55;;;1.65;;
71196;SDS011;58918;51.652;4.864;2023-04-15T08:42:22;4.88;;;1.65;;
71196;SDS011;58918;51.652;4.864;2023-04-15T08:44:50;5.65;;;1.60;;
71196;SDS011;58918;51.652;4.864;2023-04-15T08:47:17;3.67;;;1.50;;
71196;SDS011;58918;51.652;4.864;2023-04-15T08:49:49;3.28;;;1.45;;
71196;SDS011;58918;51.652;4.864;2023-04-15T08:52:19;3.92;;;1.42;;
71196;SDS011;58918;51.652;4.864;2023-04-15T08:54:46;4.80;;;1.85;;
71196;SDS011;58918;51.652;4.864;2023-04-15T08:57:14;3.60;;;1.63;;
71196;SDS011;58918;51.652;4.864;2023-04-15T08:59:41;5.30;;;1.60;;
71196;SDS011;58918;51.652;4.864;2023-04-15T09:02:10;3.67;;;1.63;;
71196;SDS011;58918;51.652;4.864;2023-04-15T09:04:37;4.22;;;1.40;;
71196;SDS011;58918;51.652;4.864;2023-04-15T09:07:04;4.43;;;1.48;;
71196;SDS011;58918;51.652;4.864;2023-04-15T09:09:32;4.80;;;1.88;;
71196;SDS011;58918;51.652;4.864;2023-04-15T09:12:00;5.05;;;1.75;;
71196;SDS011;58918;51.652;4.864;2023-04-15T09:14:27;6.03;;;1.60;;
71196;SDS011;58918;51.652;4.864;2023-04-15T09:17:03;4.10;;;1.65;;
71196;SDS011;58918;51.652;4.864;2023-04-15T09:19:30;4.90;;;1.90;;
71196;SDS011;58918;51.652;4.864;2023-04-15T09:21:59;3.80;;;1.40;;
71196;SDS011;58918;51.652;4.864;2023-04-15T09:24:37;5.35;;;1.50;;
71196;SDS011;58918;51.652;4.864;2023-04-15T09:27:06;4.70;;;1.45;;
71196;SDS011;58918;51.652;4.864;2023-04-15T09:29:33;3.80;;;1.58;;
71196;SDS011;58918;51.652;4.864;2023-04-15T09:32:13;3.85;;;1.30;;
71196;SDS011;58918;51.652;4.864;2023-04-15T09:34:41;3.53;;;1.42;;
71196;SDS011;58918;51.652;4.864;2023-04-15T09:37:08;4.47;;;1.75;;
71196;SDS011;58918;51.652;4.864;2023-04-15T09:39:57;3.03;;;1.17;;
71196;SDS011;58918;51.652;4.864;2023-04-15T09:42:24;3.58;;;1.20;;
71196;SDS011;58918;51.652;4.864;2023-04-15T09:44:52;4.15;;;1.60;;
71196;SDS011;58918;51.652;4.864;2023-04-15T09:47:31;3.83;;;1.48;;
71196;SDS011;58918;51.652;4.864;2023-04-15T09:50:00;4.75;;;1.50;;
71196;SDS011;58918;51.652;4.864;2023-04-15T09:52:28;3.92;;;1.20;;
71196;SDS011;58918;51.652;4.864;2023-04-15T09:54:58;3.47;;;1.50;;
71196;SDS011;58918;51.652;4.864;2023-04-15T09:57:32;3.90;;;1.30;;
71196;SDS011;58918;51.652;4.864;2023-04-15T10:00:01;3.45;;;1.30;;
71196;SDS011;58918;51.652;4.864;2023-04-15T10:02:29;2.88;;;1.10;;
71196;SDS011;58918;51.652;4.864;2023-04-15T10:04:57;2.60;;;1.20;;
71196;SDS011;58918;51.652;4.864;2023-04-15T10:07:25;3.47;;;1.10;;
71196;SDS011;58918;51.652;4.864;2023-04-15T10:09:52;2.97;;;1.30;;
71196;SDS011;58918;51.652;4.864;2023-04-15T10:12:20;3.10;;;1.20;;
71196;SDS011;58918;51.652;4.864;2023-04-15T10:14:58;3.55;;;1.45;;
71196;SDS011;58918;51.652;4.864;2023-04-15T10:17:27;2.75;;;1.17;;
71196;SDS011;58918;51.652;4.864;2023-04-15T10:19:56;4.22;;;1.30;;
71196;SDS011;58918;51.652;4.864;2023-04-15T10:22:24;3.38;;;1.02;;
71196;SDS011;58918;51.652;4.864;2023-04-15T10:24:52;3.33;;;1.10;;
71196;SDS011;58918;51.652;4.864;2023-04-15T10:27:20;2.80;;;0.85;;
71196;SDS011;58918;51.652;4.864;2023-04-15T10:29:48;3.90;;;1.13;;
71196;SDS011;58918;51.652;4.864;2023-04-15T10:32:17;3.35;;;1.17;;
71196;SDS011;58918;51.652;4.864;2023-04-15T10:34:46;2.60;;;0.90;;
71196;SDS011;58918;51.652;4.864;2023-04-15T10:37:19;2.40;;;1.00;;
71196;SDS011;58918;51.652;4.864;2023-04-15T10:39:46;2.85;;;1.00;;
71196;SDS011;58918;51.652;4.864;2023-04-15T10:42:15;2.45;;;0.90;;
71196;SDS011;58918;51.652;4.864;2023-04-15T10:44:51;2.83;;;0.93;;
71196;SDS011;58918;51.652;4.864;2023-04-15T10:47:22;2.47;;;0.82;;
71196;SDS011;58918;51.652;4.864;2023-04-15T10:49:51;3.53;;;0.90;;
71196;SDS011;58918;51.652;4.864;2023-04-15T10:52:22;3.10;;;0.93;;
71196;SDS011;58918;51.652;4.864;2023-04-15T10:55:00;2.70;;;0.90;;
71196;SDS011;58918;51.652;4.864;2023-04-15T10:57:33;3.80;;;1.02;;
71196;SDS011;58918;51.652;4.864;2023-04-15T11:00:02;2.33;;;0.80;;
71196;SDS011;58918;51.652;4.864;2023-04-15T11:13:01;2.88;;;0.93;;
71196;SDS011;58918;51.652;4.864;2023-04-15T11:15:29;6.40;;;1.00;;
71196;SDS011;58918;51.652;4.864;2023-04-15T11:17:58;3.55;;;1.08;;
71196;SDS011;58918;51.652;4.864;2023-04-15T11:20:34;5.63;;;1.20;;
71196;SDS011;58918;51.652;4.864;2023-04-15T11:23:02;2.10;;;0.85;;
71196;SDS011;58918;51.652;4.864;2023-04-15T11:25:40;3.63;;;0.93;;
71196;SDS011;58918;51.652;4.864;2023-04-15T11:28:08;3.65;;;0.90;;
71196;SDS011;58918;51.652;4.864;2023-04-15T11:30:35;2.53;;;0.90;;
71196;SDS011;58918;51.652;4.864;2023-04-15T11:33:06;2.67;;;0.80;;
71196;SDS011;58918;51.652;4.864;2023-04-15T11:35:33;2.88;;;0.90;;
71196;SDS011;58918;51.652;4.864;2023-04-15T11:38:02;1.55;;;0.73;;
71196;SDS011;58918;51.652;4.864;2023-04-15T11:40:29;3.45;;;0.82;;
71196;SDS011;58918;51.652;4.864;2023-04-15T11:43:14;2.90;;;0.90;;
71196;SDS011;58918;51.652;4.864;2023-04-15T11:45:48;2.47;;;0.90;;
71196;SDS011;58918;51.652;4.864;2023-04-15T11:48:16;2.60;;;1.02;;
71196;SDS011;58918;51.652;4.864;2023-04-15T11:50:44;2.97;;;0.95;;
71196;SDS011;58918;51.652;4.864;2023-04-15T11:53:12;2.40;;;0.80;;
71196;SDS011;58918;51.652;4.864;2023-04-15T11:55:47;1.90;;;0.77;;
71196;SDS011;58918;51.652;4.864;2023-04-15T12:00:45;2.30;;;0.82;;
71196;SDS011;58918;51.652;4.864;2023-04-15T12:03:17;2.78;;;1.05;;
71196;SDS011;58918;51.652;4.864;2023-04-15T12:11:20;3.72;;;0.77;;
71196;SDS011;58918;51.652;4.864;2023-04-15T12:16:23;2.80;;;0.70;;
71196;SDS011;58918;51.652;4.864;2023-04-15T12:18:51;1.52;;;0.60;;
71196;SDS011;58918;51.652;4.864;2023-04-15T12:21:21;3.70;;;0.88;;
71196;SDS011;58918;51.652;4.864;2023-04-15T12:23:49;4.00;;;1.02;;
71196;SDS011;58918;51.652;4.864;2023-04-15T12:26:17;2.60;;;0.85;;
71196;SDS011;58918;51.652;4.864;2023-04-15T12:29:01;1.50;;;0.50;;
71196;SDS011;58918;51.652;4.864;2023-04-15T12:31:28;4.25;;;0.90;;
71196;SDS011;58918;51.652;4.864;2023-04-15T12:33:56;2.58;;;0.93;;
71196;SDS011;58918;51.652;4.864;2023-04-15T12:36:23;2.60;;;0.77;;
71196;SDS011;58918;51.652;4.864;2023-04-15T12:38:51;2.88;;;0.82;;
71196;SDS011;58918;51.652;4.864;2023-04-15T12:41:19;1.95;;;0.70;;
71196;SDS011;58918;51.652;4.864;2023-04-15T12:43:47;2.28;;;0.70;;
71196;SDS011;58918;51.652;4.864;2023-04-15T12:46:14;2.15;;;0.70;;
71196;SDS011;58918;51.652;4.864;2023-04-15T12:48:41;2.55;;;0.80;;
71196;SDS011;58918;51.652;4.864;2023-04-15T12:51:09;2.83;;;0.90;;
71196;SDS011;58918;51.652;4.864;2023-04-15T12:53:36;3.08;;;0.70;;
71196;SDS011;58918;51.652;4.864;2023-04-15T12:56:03;2.30;;;0.90;;
71196;SDS011;58918;51.652;4.864;2023-04-15T12:58:31;3.03;;;0.85;;
71196;SDS011;58918;51.652;4.864;2023-04-15T13:00:58;2.60;;;0.75;;
71196;SDS011;58918;51.652;4.864;2023-04-15T13:03:25;2.28;;;0.70;;
71196;SDS011;58918;51.652;4.864;2023-04-15T13:05:53;2.30;;;0.70;;
71196;SDS011;58918;51.652;4.864;2023-04-15T13:08:20;1.90;;;0.57;;
71196;SDS011;58918;51.652;4.864;2023-04-15T13:10:47;3.65;;;0.80;;
71196;SDS011;58918;51.652;4.864;2023-04-15T13:13:14;1.70;;;0.70;;
71196;SDS011;58918;51.652;4.864;2023-04-15T13:15:42;2.03;;;0.70;;
71196;SDS011;58918;51.652;4.864;2023-04-15T13:18:11;1.13;;;0.50;;
71196;SDS011;58918;51.652;4.864;2023-04-15T13:20:38;1.77;;;0.60;;
71196;SDS011;58918;51.652;4.864;2023-04-15T13:23:06;1.55;;;0.70;;
71196;SDS011;58918;51.652;4.864;2023-04-15T13:25:33;1.50;;;0.60;;
71196;SDS011;58918;51.652;4.864;2023-04-15T13:28:00;2.58;;;0.80;;
71196;SDS011;58918;51.652;4.864;2023-04-15T13:30:28;3.70;;;1.00;;
71196;SDS011;58918;51.652;4.864;2023-04-15T13:32:56;4.28;;;0.75;;
71196;SDS011;58918;51.652;4.864;2023-04-15T13:35:23;1.48;;;0.52;;
71196;SDS011;58918;51.652;4.864;2023-04-15T13:37:51;2.15;;;0.73;;
71196;SDS011;58918;51.652;4.864;2023-04-15T13:40:20;3.00;;;0.60;;
71196;SDS011;58918;51.652;4.864;2023-04-15T13:42:47;3.10;;;0.82;;
71196;SDS011;58918;51.652;4.864;2023-04-15T13:45:14;2.35;;;0.75;;
71196;SDS011;58918;51.652;4.864;2023-04-15T13:47:41;2.28;;;0.60;;
71196;SDS011;58918;51.652;4.864;2023-04-15T13:50:09;1.48;;;0.55;;
71196;SDS011;58918;51.652;4.864;2023-04-15T13:52:36;1.75;;;0.57;;
71196;SDS011;58918;51.652;4.864;2023-04-15T13:55:03;2.80;;;0.88;;
71196;SDS011;58918;51.652;4.864;2023-04-15T13:57:47;5.13;;;0.90;;
71196;SDS011;58918;51.652;4.864;2023-04-15T14:00:15;2.28;;;0.60;;
71196;SDS011;58918;51.652;4.864;2023-04-15T14:02:43;1.92;;;0.68;;
71196;SDS011;58918;51.652;4.864;2023-04-15T14:05:10;2.67;;;0.85;;
71196;SDS011;58918;51.652;4.864;2023-04-15T14:07:37;2.15;;;0.75;;
71196;SDS011;58918;51.652;4.864;2023-04-15T14:10:05;2.20;;;0.63;;
71196;SDS011;58918;51.652;4.864;2023-04-15T14:12:32;1.70;;;0.60;;
71196;SDS011;58918;51.652;4.864;2023-04-15T14:14:59;0.88;;;0.45;;
71196;SDS011;58918;51.652;4.864;2023-04-15T14:17:27;1.95;;;0.52;;
71196;SDS011;58918;51.652;4.864;2023-04-15T14:19:54;1.63;;;0.60;;
71196;SDS011;58918;51.652;4.864;2023-04-15T14:22:21;3.72;;;0.90;;
71196;SDS011;58918;51.652;4.864;2023-04-15T14:24:48;2.20;;;0.68;;
71196;SDS011;58918;51.652;4.864;2023-04-15T14:27:18;2.58;;;0.73;;
71196;SDS011;58918;51.652;4.864;2023-04-15T14:29:45;1.75;;;0.50;;
71196;SDS011;58918;51.652;4.864;2023-04-15T14:32:13;2.72;;;0.73;;
71196;SDS011;58918;51.652;4.864;2023-04-15T14:34:42;3.47;;;0.90;;
71196;SDS011;58918;51.652;4.864;2023-04-15T14:37:09;4.53;;;0.80;;
71196;SDS011;58918;51.652;4.864;2023-04-15T14:39:37;4.93;;;0.70;;
71196;SDS011;58918;51.652;4.864;2023-04-15T14:42:07;6.10;;;0.85;;
71196;SDS011;58918;51.652;4.864;2023-04-15T14:44:34;4.68;;;0.70;;
71196;SDS011;58918;51.652;4.864;2023-04-15T14:47:02;3.83;;;0.80;;
71196;SDS011;58918;51.652;4.864;2023-04-15T14:49:29;5.82;;;0.90;;
71196;SDS011;58918;51.652;4.864;2023-04-15T14:51:56;6.60;;;0.88;;
71196;SDS011;58918;51.652;4.864;2023-04-15T14:54:23;5.70;;;0.93;;
71196;SDS011;58918;51.652;4.864;2023-04-15T14:56:50;3.75;;;0.70;;
71196;SDS011;58918;51.652;4.864;2023-04-15T14:59:18;2.15;;;0.70;;
71196;SDS011;58918;51.652;4.864;2023-04-15T15:01:45;3.08;;;0.70;;
71196;SDS011;58918;51.652;4.864;2023-04-15T15:04:12;2.25;;;0.70;;
71196;SDS011;58918;51.652;4.864;2023-04-15T15:06:40;2.78;;;0.70;;
71196;SDS011;58918;51.652;4.864;2023-04-15T15:09:07;3.53;;;0.70;;
71196;SDS011;58918;51.652;4.864;2023-04-15T15:11:34;3.05;;;0.70;;
71196;SDS011;58918;51.652;4.864;2023-04-15T15:14:01;2.58;;;0.90;;
71196;SDS011;58918;51.652;4.864;2023-04-15T15:16:29;2.25;;;0.80;;
71196;SDS011;58918;51.652;4.864;2023-04-15T15:18:56;4.60;;;1.10;;